createdAt,value
2018-11-29T00:00:44.036Z,967.33
2018-11-29T00:01:44.021Z,967.22
2018-11-29T00:02:44.023Z,967.40
2018-11-29T00:03:44.002Z,967.26
2018-11-29T00:04:43.996Z,967.36
2018-11-29T00:05:43.987Z,967.34
2018-11-29T00:06:43.980Z,967.24
2018-11-29T00:07:43.965Z,967.24
2018-11-29T00:08:43.959Z,967.28
2018-11-29T00:09:43.946Z,967.36
2018-11-29T00:10:43.938Z,967.15
2018-11-29T00:11:43.930Z,967.23
2018-11-29T00:12:43.927Z,967.27
2018-11-29T00:13:43.941Z,967.22
2018-11-29T00:14:43.898Z,967.33
2018-11-29T00:15:43.892Z,967.23
2018-11-29T00:16:43.881Z,967.27
2018-11-29T00:17:43.874Z,967.22
2018-11-29T00:18:43.865Z,967.26
2018-11-29T00:19:43.853Z,967.30
2018-11-29T00:20:43.843Z,967.18
2018-11-29T00:21:43.840Z,967.22
2018-11-29T00:22:43.831Z,967.07
2018-11-29T00:23:43.829Z,967.09
2018-11-29T00:24:43.819Z,967.17
2018-11-29T00:25:43.799Z,967.15
2018-11-29T00:26:43.791Z,967.13
2018-11-29T00:27:43.782Z,967.18
2018-11-29T00:28:43.774Z,967.14
2018-11-29T00:29:43.766Z,967.16
2018-11-29T00:30:43.753Z,967.11
2018-11-29T00:31:43.747Z,967.06
2018-11-29T00:32:43.737Z,967.03
2018-11-29T00:33:43.730Z,967.05
2018-11-29T00:34:43.720Z,967.02
2018-11-29T00:35:43.710Z,967.08
2018-11-29T00:36:43.708Z,967.07
2018-11-29T00:37:43.692Z,967.02
2018-11-29T00:38:43.743Z,967.11
2018-11-29T00:39:43.675Z,967.09
2018-11-29T00:40:43.669Z,967.04
2018-11-29T00:41:43.657Z,966.98
2018-11-29T00:42:43.648Z,967.03
2018-11-29T00:43:43.651Z,967.03
2018-11-29T00:44:43.630Z,966.88
2018-11-29T00:45:43.622Z,966.83
2018-11-29T00:46:43.636Z,966.88
2018-11-29T00:47:43.607Z,966.89
2018-11-29T00:48:43.597Z,966.81
2018-11-29T00:49:43.591Z,966.73
2018-11-29T00:50:43.598Z,966.81
2018-11-29T00:51:43.573Z,966.80
2018-11-29T00:52:43.567Z,966.68
2018-11-29T00:53:43.554Z,966.79
2018-11-29T00:54:43.555Z,966.70
2018-11-29T00:55:43.540Z,966.72
2018-11-29T00:56:43.535Z,966.76
2018-11-29T00:57:43.531Z,966.77
2018-11-29T00:58:43.510Z,966.71
2018-11-29T00:59:43.504Z,966.68
2018-11-29T01:00:43.493Z,966.76
2018-11-29T01:01:43.484Z,966.74
2018-11-29T01:02:43.476Z,966.69
2018-11-29T01:03:43.468Z,966.67
2018-11-29T01:04:43.459Z,966.61
2018-11-29T01:05:43.452Z,966.54
2018-11-29T01:06:43.439Z,966.52
2018-11-29T01:07:43.437Z,966.49
2018-11-29T01:08:43.422Z,966.62
2018-11-29T01:09:43.417Z,966.56
2018-11-29T01:10:43.407Z,966.44
2018-11-29T01:11:43.399Z,966.50
2018-11-29T01:12:43.391Z,966.54
2018-11-29T01:13:43.386Z,966.50
2018-11-29T01:14:43.375Z,966.88
2018-11-29T01:15:43.368Z,966.43
2018-11-29T01:16:43.373Z,966.55
2018-11-29T01:17:43.344Z,966.50
2018-11-29T01:18:43.341Z,966.51
2018-11-29T01:19:43.330Z,966.48
2018-11-29T01:20:43.321Z,966.54
2018-11-29T01:21:43.312Z,966.37
2018-11-29T01:22:43.305Z,966.62
2018-11-29T01:23:43.300Z,966.65
2018-11-29T01:24:43.284Z,966.50
2018-11-29T01:25:43.285Z,966.48
2018-11-29T01:26:43.266Z,966.49
2018-11-29T01:27:43.267Z,966.55
2018-11-29T01:28:43.249Z,966.65
2018-11-29T01:29:43.244Z,966.56
2018-11-29T01:30:43.232Z,966.61
2018-11-29T01:31:43.224Z,966.34
2018-11-29T01:32:43.218Z,966.44
2018-11-29T01:33:43.216Z,966.54
2018-11-29T01:34:43.196Z,966.58
2018-11-29T01:35:43.195Z,966.49
2018-11-29T01:36:43.181Z,966.50
2018-11-29T01:37:43.171Z,966.56
2018-11-29T01:38:43.159Z,966.47
2018-11-29T01:39:43.155Z,966.51
2018-11-29T01:40:43.146Z,966.64
2018-11-29T01:41:43.135Z,966.68
2018-11-29T01:42:43.126Z,966.62
2018-11-29T01:43:43.117Z,966.58
2018-11-29T01:44:43.112Z,966.53
2018-11-29T01:45:43.103Z,966.46
2018-11-29T01:46:43.089Z,966.49
2018-11-29T01:47:43.080Z,966.51
2018-11-29T01:48:43.097Z,966.50
2018-11-29T01:49:43.101Z,966.67
2018-11-29T01:50:43.097Z,966.58
2018-11-29T01:51:43.053Z,966.53
2018-11-29T01:52:43.053Z,966.60
2018-11-29T01:53:43.035Z,966.72
2018-11-29T01:54:43.034Z,966.60
2018-11-29T01:55:43.049Z,966.71
2018-11-29T01:56:43.030Z,966.63
2018-11-29T01:57:43.041Z,966.74
2018-11-29T01:58:42.989Z,966.67
2018-11-29T01:59:42.987Z,966.74
2018-11-29T02:00:42.980Z,966.64
2018-11-29T02:01:42.986Z,966.70
2018-11-29T02:02:42.953Z,966.73
2018-11-29T02:03:42.992Z,966.86
2018-11-29T02:04:42.974Z,966.88
2018-11-29T02:05:42.950Z,966.88
2018-11-29T02:06:42.983Z,966.80
2018-11-29T02:07:42.971Z,966.85
2018-11-29T02:08:42.931Z,966.97
2018-11-29T02:09:42.930Z,967.00
2018-11-29T02:10:42.985Z,966.88
2018-11-29T02:11:43.013Z,966.88
2018-11-29T02:12:43.017Z,966.94
2018-11-29T02:13:42.928Z,966.87
2018-11-29T02:14:43.120Z,966.87
2018-11-29T02:15:44.105Z,966.86
2018-11-29T02:16:43.976Z,966.87
2018-11-29T02:17:51.180Z,966.90
2018-11-29T02:19:36.573Z,966.66
2018-11-29T02:20:36.573Z,966.81
2018-11-29T02:21:36.340Z,966.67
2018-11-29T02:22:36.359Z,966.73
2018-11-29T02:23:36.291Z,966.70
2018-11-29T02:24:36.282Z,966.67
2018-11-29T02:25:36.257Z,966.72
2018-11-29T02:26:36.251Z,966.75
2018-11-29T02:27:36.887Z,966.79
2018-11-29T02:28:36.222Z,966.69
2018-11-29T02:29:36.300Z,966.67
2018-11-29T02:30:36.162Z,966.74
2018-11-29T02:31:36.308Z,966.64
2018-11-29T02:32:36.178Z,966.67
2018-11-29T02:33:36.194Z,966.65
2018-11-29T02:34:36.144Z,966.60
2018-11-29T02:35:36.119Z,966.61
2018-11-29T02:36:36.104Z,966.65
2018-11-29T02:37:36.129Z,966.54
2018-11-29T02:38:36.163Z,966.48
2018-11-29T02:39:36.083Z,966.58
2018-11-29T02:40:36.174Z,966.57
2018-11-29T02:41:36.102Z,966.61
2018-11-29T02:42:36.083Z,966.70
2018-11-29T02:43:36.105Z,966.70
2018-11-29T02:44:36.064Z,966.53
2018-11-29T02:45:36.088Z,966.60
2018-11-29T02:46:36.170Z,966.59
2018-11-29T02:47:36.039Z,966.61
2018-11-29T02:48:36.049Z,966.70
2018-11-29T02:49:36.006Z,966.63
2018-11-29T02:50:36.071Z,966.64
2018-11-29T02:51:36.028Z,966.60
2018-11-29T02:52:36.015Z,966.48
2018-11-29T02:53:36.074Z,966.60
2018-11-29T02:54:35.987Z,966.55
2018-11-29T02:55:36.020Z,966.70
2018-11-29T02:56:35.985Z,966.69
2018-11-29T02:57:35.929Z,966.69
2018-11-29T02:58:35.959Z,966.71
2018-11-29T02:59:35.983Z,966.74
2018-11-29T03:00:35.943Z,966.70
2018-11-29T03:01:35.890Z,966.64
2018-11-29T03:02:35.882Z,966.64
2018-11-29T03:03:35.884Z,966.59
2018-11-29T03:04:35.871Z,966.62
2018-11-29T03:05:35.886Z,966.63
2018-11-29T03:06:35.909Z,966.59
2018-11-29T03:07:35.848Z,966.61
2018-11-29T03:08:35.840Z,966.55
2018-11-29T03:09:35.832Z,966.56
2018-11-29T03:10:35.814Z,966.60
2018-11-29T03:11:35.842Z,966.59
2018-11-29T03:12:35.803Z,966.54
2018-11-29T03:13:35.865Z,966.57
2018-11-29T03:14:35.781Z,966.59
2018-11-29T03:15:35.823Z,966.61
2018-11-29T03:16:35.772Z,966.66
2018-11-29T03:17:35.849Z,966.58
2018-11-29T03:18:35.781Z,966.62
2018-11-29T03:19:35.853Z,966.59
2018-11-29T03:20:45.552Z,966.54
2018-11-29T03:21:35.983Z,966.60
2018-11-29T03:22:35.955Z,966.56
2018-11-29T03:23:35.892Z,966.46
2018-11-29T03:24:35.801Z,966.51
2018-11-29T03:25:35.782Z,966.49
2018-11-29T03:26:35.696Z,966.56
2018-11-29T03:27:35.723Z,966.50
2018-11-29T03:28:35.702Z,966.56
2018-11-29T03:29:35.671Z,966.59
2018-11-29T03:30:35.667Z,966.60
2018-11-29T03:31:35.658Z,966.61
2018-11-29T03:32:35.644Z,966.57
2018-11-29T03:33:35.640Z,966.62
2018-11-29T03:34:35.636Z,966.61
2018-11-29T03:35:35.654Z,966.57
2018-11-29T03:36:35.648Z,966.59
2018-11-29T03:37:35.633Z,966.55
2018-11-29T03:38:35.610Z,966.51
2018-11-29T03:39:35.586Z,966.43
2018-11-29T03:40:35.614Z,966.41
2018-11-29T03:41:35.655Z,966.36
2018-11-29T03:42:35.566Z,966.33
2018-11-29T03:43:35.555Z,966.32
2018-11-29T03:44:35.568Z,966.32
2018-11-29T03:45:35.540Z,966.29
2018-11-29T03:46:35.561Z,966.31
2018-11-29T03:47:35.537Z,966.31
2018-11-29T03:48:35.551Z,966.26
2018-11-29T03:49:35.512Z,966.23
2018-11-29T03:50:35.533Z,966.22
2018-11-29T03:51:35.503Z,966.22
2018-11-29T03:52:35.484Z,966.19
2018-11-29T03:53:35.504Z,966.20
2018-11-29T03:54:35.481Z,966.26
2018-11-29T03:55:35.469Z,966.15
2018-11-29T03:56:35.460Z,966.25
2018-11-29T03:57:35.466Z,966.15
2018-11-29T03:58:35.440Z,966.17
2018-11-29T03:59:35.439Z,966.17
2018-11-29T04:00:35.421Z,966.19
2018-11-29T04:01:35.419Z,966.22
2018-11-29T04:02:35.438Z,966.27
2018-11-29T04:03:35.401Z,966.18
2018-11-29T04:04:35.391Z,966.19
2018-11-29T04:05:35.393Z,966.26
2018-11-29T04:06:35.379Z,966.19
2018-11-29T04:07:35.366Z,966.29
2018-11-29T04:08:35.362Z,966.27
2018-11-29T04:09:35.356Z,966.30
2018-11-29T04:10:35.342Z,966.29
2018-11-29T04:11:35.342Z,966.33
2018-11-29T04:12:37.378Z,966.28
2018-11-29T04:13:35.464Z,966.40
2018-11-29T04:14:35.472Z,966.34
2018-11-29T04:15:35.484Z,966.40
2018-11-29T04:16:35.453Z,966.44
2018-11-29T04:17:40.604Z,966.39
2018-11-29T04:18:37.467Z,966.40
2018-11-29T04:19:37.495Z,966.34
2018-11-29T04:20:36.405Z,966.32
2018-11-29T04:21:36.356Z,966.28
2018-11-29T04:22:35.403Z,966.34
2018-11-29T04:23:38.856Z,966.26
2018-11-29T04:24:35.477Z,966.35
2018-11-29T04:25:35.426Z,966.39
2018-11-29T04:26:35.392Z,966.27
2018-11-29T04:27:42.745Z,966.29
2018-11-29T04:28:36.380Z,966.25
2018-11-29T04:29:36.952Z,966.31
2018-11-29T04:30:36.978Z,966.26
2018-11-29T04:31:35.335Z,966.25
2018-11-29T04:32:36.883Z,966.25
2018-11-29T04:33:35.175Z,966.28
2018-11-29T04:34:35.178Z,966.29
2018-11-29T04:35:35.198Z,966.31
2018-11-29T04:36:35.167Z,966.31
2018-11-29T04:37:35.177Z,966.33
2018-11-29T04:38:35.164Z,966.36
2018-11-29T04:39:35.193Z,966.37
2018-11-29T04:40:37.079Z,966.32
2018-11-29T04:41:37.074Z,966.28
2018-11-29T04:42:35.181Z,966.28
2018-11-29T04:43:35.219Z,966.29
2018-11-29T04:44:35.248Z,966.19
2018-11-29T04:45:35.100Z,966.21
2018-11-29T04:46:35.080Z,966.25
2018-11-29T04:47:35.109Z,966.30
2018-11-29T04:48:35.062Z,966.35
2018-11-29T04:49:35.065Z,966.30
2018-11-29T04:50:35.088Z,966.30
2018-11-29T04:51:35.044Z,966.30
2018-11-29T04:52:35.069Z,966.25
2018-11-29T04:53:35.025Z,966.29
2018-11-29T04:54:35.066Z,966.25
2018-11-29T04:55:35.030Z,966.27
2018-11-29T04:56:35.060Z,966.27
2018-11-29T04:57:34.994Z,966.23
2018-11-29T04:58:35.014Z,966.24
2018-11-29T04:59:35.010Z,966.28
2018-11-29T05:00:34.968Z,966.22
2018-11-29T05:01:34.976Z,966.27
2018-11-29T05:02:35.004Z,966.23
2018-11-29T05:03:35.058Z,966.17
2018-11-29T05:04:34.964Z,966.14
2018-11-29T05:05:36.822Z,966.09
2018-11-29T05:06:35.069Z,966.13
2018-11-29T05:07:34.923Z,966.02
2018-11-29T05:08:34.919Z,966.08
2018-11-29T05:09:34.910Z,966.08
2018-11-29T05:10:34.901Z,966.08
2018-11-29T05:11:34.890Z,966.05
2018-11-29T05:12:34.919Z,966.07
2018-11-29T05:13:34.874Z,966.01
2018-11-29T05:14:34.864Z,966.04
2018-11-29T05:15:34.858Z,966.07
2018-11-29T05:16:34.854Z,966.01
2018-11-29T05:17:34.886Z,966.04
2018-11-29T05:18:34.839Z,965.99
2018-11-29T05:19:34.851Z,966.02
2018-11-29T05:20:34.826Z,966.05
2018-11-29T05:21:35.806Z,966.12
2018-11-29T05:22:34.812Z,966.13
2018-11-29T05:23:34.804Z,966.12
2018-11-29T05:24:34.802Z,966.13
2018-11-29T05:25:34.786Z,966.07
2018-11-29T05:26:34.774Z,966.12
2018-11-29T05:27:34.794Z,966.06
2018-11-29T05:28:34.784Z,966.15
2018-11-29T05:29:34.801Z,966.16
2018-11-29T05:30:35.063Z,966.16
2018-11-29T05:31:34.740Z,966.10
2018-11-29T05:32:34.791Z,966.14
2018-11-29T05:33:34.733Z,966.18
2018-11-29T05:34:34.757Z,966.17
2018-11-29T05:35:34.716Z,966.10
2018-11-29T05:36:34.729Z,966.14
2018-11-29T05:37:35.686Z,966.13
2018-11-29T05:38:34.717Z,966.16
2018-11-29T05:39:34.965Z,966.13
2018-11-29T05:40:34.683Z,966.16
2018-11-29T05:41:34.688Z,966.16
2018-11-29T05:42:34.667Z,966.20
2018-11-29T05:43:34.681Z,966.22
2018-11-29T05:44:34.647Z,966.17
2018-11-29T05:46:12.580Z,966.10
2018-11-29T05:47:12.676Z,966.19
2018-11-29T05:49:05.938Z,966.19
2018-11-29T05:50:06.241Z,966.21
2018-11-29T05:51:59.391Z,966.18
2018-11-29T05:52:59.499Z,966.21
2018-11-29T05:54:52.845Z,966.20
2018-11-29T05:55:52.749Z,966.16
2018-11-29T05:57:46.197Z,966.18
2018-11-29T05:58:46.220Z,966.21
2018-11-29T06:00:38.950Z,966.16
2018-11-29T06:01:39.100Z,966.23
2018-11-29T06:02:38.877Z,966.22
2018-11-29T06:03:38.847Z,966.22
2018-11-29T06:04:38.862Z,966.21
2018-11-29T06:05:39.497Z,966.22
2018-11-29T06:06:38.745Z,966.21
2018-11-29T06:07:38.735Z,966.18
2018-11-29T06:08:38.731Z,966.19
2018-11-29T06:09:38.727Z,966.18
2018-11-29T06:10:38.710Z,966.21
2018-11-29T06:11:38.734Z,966.20
2018-11-29T06:12:38.723Z,966.17
2018-11-29T06:13:38.694Z,966.22
2018-11-29T06:14:38.681Z,966.23
2018-11-29T06:15:38.676Z,966.22
2018-11-29T06:16:38.686Z,966.25
2018-11-29T06:17:38.665Z,966.27
2018-11-29T06:18:38.656Z,966.33
2018-11-29T06:19:38.648Z,966.40
2018-11-29T06:20:38.679Z,966.43
2018-11-29T06:21:38.689Z,966.43
2018-11-29T06:22:38.627Z,966.38
2018-11-29T06:23:38.673Z,966.44
2018-11-29T06:24:38.612Z,966.37
2018-11-29T06:25:38.606Z,966.48
2018-11-29T06:26:38.606Z,966.46
2018-11-29T06:27:38.591Z,966.45
2018-11-29T06:28:38.579Z,966.47
2018-11-29T06:29:38.574Z,966.55
2018-11-29T06:30:38.573Z,966.40
2018-11-29T06:31:38.582Z,966.46
2018-11-29T06:32:38.551Z,966.53
2018-11-29T06:33:38.545Z,966.48
2018-11-29T06:34:38.540Z,966.48
2018-11-29T06:35:38.535Z,966.45
2018-11-29T06:36:38.527Z,966.45
2018-11-29T06:37:38.517Z,966.45
2018-11-29T06:38:38.550Z,966.47
2018-11-29T06:39:38.508Z,966.43
2018-11-29T06:40:38.522Z,966.47
2018-11-29T06:41:38.493Z,966.41
2018-11-29T06:42:38.487Z,966.49
2018-11-29T06:43:38.521Z,966.52
2018-11-29T06:44:38.466Z,966.50
2018-11-29T06:45:38.459Z,966.48
2018-11-29T06:46:38.455Z,966.44
2018-11-29T06:47:38.451Z,966.40
2018-11-29T06:48:38.437Z,966.39
2018-11-29T06:49:38.426Z,966.41
2018-11-29T06:50:38.419Z,966.39
2018-11-29T06:51:38.445Z,966.40
2018-11-29T06:52:38.413Z,966.40
2018-11-29T06:53:38.397Z,966.39
2018-11-29T06:54:38.390Z,966.37
2018-11-29T06:55:38.385Z,966.33
2018-11-29T06:56:38.375Z,966.30
2018-11-29T06:57:38.366Z,966.29
2018-11-29T06:58:38.386Z,966.32
2018-11-29T06:59:38.354Z,966.38
2018-11-29T07:00:38.348Z,966.33
2018-11-29T07:01:39.848Z,966.40
2018-11-29T07:02:38.330Z,966.39
2018-11-29T07:03:38.321Z,966.38
2018-11-29T07:04:38.315Z,966.38
2018-11-29T07:05:38.309Z,966.33
2018-11-29T07:06:38.303Z,966.34
2018-11-29T07:07:38.291Z,966.37
2018-11-29T07:08:38.285Z,966.42
2018-11-29T07:09:38.278Z,966.45
2018-11-29T07:10:38.268Z,966.32
2018-11-29T07:11:38.266Z,966.31
2018-11-29T07:12:38.252Z,966.28
2018-11-29T07:13:38.251Z,966.27
2018-11-29T07:14:38.238Z,966.28
2018-11-29T07:15:38.229Z,966.23
2018-11-29T07:16:38.245Z,966.22
2018-11-29T07:17:38.214Z,966.27
2018-11-29T07:18:38.208Z,966.16
2018-11-29T07:19:38.202Z,966.26
2018-11-29T07:20:38.213Z,966.20
2018-11-29T07:21:38.187Z,966.18
2018-11-29T07:22:38.178Z,966.20
2018-11-29T07:23:38.170Z,966.15
2018-11-29T07:24:38.164Z,966.24
2018-11-29T07:25:38.252Z,966.15
2018-11-29T07:26:38.148Z,966.12
2018-11-29T07:27:38.136Z,966.19
2018-11-29T07:28:38.907Z,966.07
2018-11-29T07:29:38.966Z,966.05
2018-11-29T07:30:38.153Z,966.03
2018-11-29T07:31:38.173Z,966.09
2018-11-29T07:32:38.240Z,966.08
2018-11-29T07:33:38.226Z,966.00
2018-11-29T07:34:38.127Z,966.01
2018-11-29T07:35:38.193Z,966.09
2018-11-29T07:36:38.089Z,965.98
2018-11-29T07:37:38.073Z,965.97
2018-11-29T07:38:38.056Z,965.97
2018-11-29T07:39:38.078Z,965.91
2018-11-29T07:40:38.042Z,965.86
2018-11-29T07:41:38.037Z,965.91
2018-11-29T07:42:38.043Z,965.86
2018-11-29T07:43:38.029Z,965.81
2018-11-29T07:44:38.016Z,965.82
2018-11-29T07:45:38.022Z,965.91
2018-11-29T07:46:38.006Z,965.88
2018-11-29T07:47:38.000Z,965.98
2018-11-29T07:48:38.003Z,965.97
2018-11-29T07:49:38.013Z,965.92
2018-11-29T07:50:37.981Z,965.90
2018-11-29T07:51:37.974Z,965.98
2018-11-29T07:52:37.961Z,965.88
2018-11-29T07:53:37.979Z,965.91
2018-11-29T07:54:37.958Z,965.84
2018-11-29T07:55:37.938Z,965.78
2018-11-29T07:56:37.936Z,965.79
2018-11-29T07:57:37.933Z,965.80
2018-11-29T07:58:37.927Z,965.79
2018-11-29T07:59:37.928Z,965.74
2018-11-29T08:00:37.909Z,965.78
2018-11-29T08:01:37.901Z,965.75
2018-11-29T08:02:37.897Z,965.75
2018-11-29T08:03:37.887Z,965.73
2018-11-29T08:04:37.884Z,965.73
2018-11-29T08:05:37.877Z,965.71
2018-11-29T08:06:37.875Z,965.75
2018-11-29T08:07:37.861Z,965.78
2018-11-29T08:08:37.857Z,965.75
2018-11-29T08:09:37.852Z,965.76
2018-11-29T08:10:37.848Z,965.78
2018-11-29T08:11:37.838Z,965.75
2018-11-29T08:12:37.837Z,965.73
2018-11-29T08:13:37.839Z,965.68
2018-11-29T08:14:37.818Z,965.74
2018-11-29T08:15:38.948Z,965.73
2018-11-29T08:16:37.815Z,965.86
2018-11-29T08:17:37.802Z,965.82
2018-11-29T08:18:37.810Z,965.82
2018-11-29T08:19:37.791Z,965.84
2018-11-29T08:20:37.785Z,965.77
2018-11-29T08:21:37.779Z,965.80
2018-11-29T08:22:37.772Z,965.76
2018-11-29T08:23:37.795Z,965.83
2018-11-29T08:24:37.762Z,965.82
2018-11-29T08:25:37.779Z,965.81
2018-11-29T08:26:37.752Z,965.79
2018-11-29T08:27:37.753Z,965.77
2018-11-29T08:28:37.752Z,965.87
2018-11-29T08:29:37.752Z,965.86
2018-11-29T08:30:37.733Z,965.79
2018-11-29T08:31:37.750Z,965.84
2018-11-29T08:32:37.718Z,965.80
2018-11-29T08:33:37.716Z,965.81
2018-11-29T08:34:37.713Z,965.82
2018-11-29T08:35:37.703Z,965.84
2018-11-29T08:36:37.698Z,965.88
2018-11-29T08:37:37.691Z,965.83
2018-11-29T08:38:37.687Z,965.86
2018-11-29T08:39:37.701Z,965.80
2018-11-29T08:40:37.676Z,965.82
2018-11-29T08:41:37.688Z,965.88
2018-11-29T08:42:37.697Z,966.05
2018-11-29T08:43:37.688Z,966.10
2018-11-29T08:44:37.674Z,966.03
2018-11-29T08:45:37.658Z,966.16
2018-11-29T08:46:37.707Z,966.02
2018-11-29T08:47:37.656Z,966.03
2018-11-29T08:48:37.649Z,966.00
2018-11-29T08:49:37.644Z,966.03
2018-11-29T08:50:37.662Z,965.92
2018-11-29T08:51:37.662Z,965.88
2018-11-29T08:52:37.645Z,965.97
2018-11-29T08:53:37.671Z,965.94
2018-11-29T08:54:37.642Z,965.90
2018-11-29T08:55:37.672Z,965.93
2018-11-29T08:56:37.634Z,965.93
2018-11-29T08:57:37.631Z,965.92
2018-11-29T08:58:37.639Z,965.99
2018-11-29T08:59:37.634Z,966.00
2018-11-29T09:00:37.656Z,965.96
2018-11-29T09:01:37.633Z,965.93
2018-11-29T09:02:37.629Z,965.87
2018-11-29T09:03:37.637Z,965.89
2018-11-29T09:04:37.629Z,965.86
2018-11-29T09:05:37.628Z,965.76
2018-11-29T09:06:37.629Z,965.74
2018-11-29T09:07:37.635Z,965.71
2018-11-29T09:08:37.639Z,965.78
2018-11-29T09:09:37.633Z,965.74
2018-11-29T09:10:37.633Z,965.78
2018-11-29T09:11:37.658Z,965.93
2018-11-29T09:12:37.647Z,965.91
2018-11-29T09:13:37.638Z,965.92
2018-11-29T09:14:37.637Z,965.97
2018-11-29T09:15:37.637Z,965.96
2018-11-29T09:16:37.636Z,965.96
2018-11-29T09:17:37.638Z,965.97
2018-11-29T09:18:37.643Z,966.04
2018-11-29T09:19:37.639Z,965.97
2018-11-29T09:20:37.642Z,965.98
2018-11-29T09:21:37.647Z,965.99
2018-11-29T09:22:37.650Z,965.90
2018-11-29T09:23:37.667Z,965.84
2018-11-29T09:24:37.715Z,965.85
2018-11-29T09:25:37.645Z,965.77
2018-11-29T09:26:37.647Z,965.73
2018-11-29T09:27:37.656Z,965.68
2018-11-29T09:28:37.652Z,965.73
2018-11-29T09:29:37.652Z,965.64
2018-11-29T09:30:37.655Z,965.62
2018-11-29T09:31:37.655Z,965.61
2018-11-29T09:32:37.659Z,965.52
2018-11-29T09:33:37.655Z,965.70
2018-11-29T09:34:37.657Z,965.71
2018-11-29T09:35:37.656Z,965.71
2018-11-29T09:36:37.661Z,965.72
2018-11-29T09:37:37.655Z,965.77
2018-11-29T09:38:37.673Z,965.82
2018-11-29T09:39:37.653Z,965.78
2018-11-29T09:40:37.663Z,965.73
2018-11-29T09:41:37.659Z,965.75
2018-11-29T09:42:37.659Z,965.72
2018-11-29T09:43:37.656Z,965.73
2018-11-29T09:44:37.660Z,965.73
2018-11-29T09:45:37.664Z,965.58
2018-11-29T09:46:37.661Z,965.60
2018-11-29T09:47:37.660Z,965.73
2018-11-29T09:48:37.696Z,965.57
2018-11-29T09:49:37.665Z,965.46
2018-11-29T09:50:37.696Z,965.52
2018-11-29T09:51:37.664Z,965.53
2018-11-29T09:52:37.688Z,965.52
2018-11-29T09:53:37.669Z,965.62
2018-11-29T09:54:37.674Z,965.63
2018-11-29T09:55:37.693Z,965.69
2018-11-29T09:56:37.677Z,965.63
2018-11-29T09:57:37.674Z,965.62
2018-11-29T09:58:37.682Z,965.61
2018-11-29T09:59:37.686Z,965.53
2018-11-29T10:00:37.681Z,965.55
2018-11-29T10:01:37.753Z,965.53
2018-11-29T10:02:37.702Z,965.49
2018-11-29T10:03:37.701Z,965.50
2018-11-29T10:04:37.700Z,965.52
2018-11-29T10:05:37.703Z,965.47
2018-11-29T10:06:37.705Z,965.51
2018-11-29T10:07:37.710Z,965.56
2018-11-29T10:08:37.717Z,965.48
2018-11-29T10:09:37.726Z,965.41
2018-11-29T10:10:38.374Z,965.47
2018-11-29T10:11:37.731Z,965.49
2018-11-29T10:12:37.753Z,965.46
2018-11-29T10:13:37.747Z,965.43
2018-11-29T10:14:37.747Z,965.43
2018-11-29T10:15:37.750Z,965.43
2018-11-29T10:16:37.757Z,965.37
2018-11-29T10:17:37.772Z,965.34
2018-11-29T10:18:37.800Z,965.35
2018-11-29T10:19:37.781Z,965.31
2018-11-29T10:20:37.778Z,965.33
2018-11-29T10:21:37.784Z,965.35
2018-11-29T10:22:37.791Z,965.21
2018-11-29T10:23:37.801Z,965.21
2018-11-29T10:24:37.805Z,965.26
2018-11-29T10:25:37.812Z,965.26
2018-11-29T10:26:37.809Z,965.25
2018-11-29T10:27:37.822Z,965.11
2018-11-29T10:28:37.842Z,965.15
2018-11-29T10:29:37.827Z,965.10
2018-11-29T10:30:37.834Z,965.16
2018-11-29T10:31:37.856Z,965.07
2018-11-29T10:32:37.841Z,964.98
2018-11-29T10:33:37.844Z,965.01
2018-11-29T10:34:37.850Z,964.90
2018-11-29T10:35:37.851Z,964.92
2018-11-29T10:36:37.859Z,964.85
2018-11-29T10:37:37.859Z,964.74
2018-11-29T10:38:37.867Z,964.79
2018-11-29T10:39:37.868Z,964.65
2018-11-29T10:40:37.878Z,964.68
2018-11-29T10:41:37.875Z,964.65
2018-11-29T10:42:37.876Z,964.56
2018-11-29T10:43:37.906Z,964.76
2018-11-29T10:44:37.880Z,964.66
2018-11-29T10:45:37.886Z,964.69
2018-11-29T10:46:37.883Z,964.64
2018-11-29T10:47:37.897Z,964.73
2018-11-29T10:48:37.885Z,964.63
2018-11-29T10:49:37.905Z,964.72
2018-11-29T10:50:37.885Z,964.61
2018-11-29T10:51:37.907Z,964.65
2018-11-29T10:52:37.886Z,964.64
2018-11-29T10:53:38.213Z,964.58
2018-11-29T10:54:37.884Z,964.52
2018-11-29T10:55:37.883Z,964.55
2018-11-29T10:56:37.894Z,964.56
2018-11-29T10:57:37.884Z,964.39
2018-11-29T10:58:37.882Z,964.54
2018-11-29T10:59:37.878Z,964.46
2018-11-29T11:00:37.880Z,964.42
2018-11-29T11:01:37.875Z,964.41
2018-11-29T11:02:37.875Z,964.32
2018-11-29T11:03:37.891Z,964.38
2018-11-29T11:04:37.896Z,964.47
2018-11-29T11:05:37.891Z,964.47
2018-11-29T11:06:37.876Z,964.54
2018-11-29T11:07:38.781Z,964.46
2018-11-29T11:08:37.866Z,964.50
2018-11-29T11:09:37.865Z,964.57
2018-11-29T11:10:37.858Z,964.53
2018-11-29T11:11:37.868Z,964.46
2018-11-29T11:12:37.858Z,964.46
2018-11-29T11:13:37.855Z,964.44
2018-11-29T11:14:37.851Z,964.48
2018-11-29T11:15:37.870Z,964.46
2018-11-29T11:16:37.846Z,964.43
2018-11-29T11:17:37.852Z,964.33
2018-11-29T11:18:37.841Z,964.34
2018-11-29T11:19:37.848Z,964.40
2018-11-29T11:20:37.836Z,964.34
2018-11-29T11:21:37.853Z,964.34
2018-11-29T11:22:37.836Z,964.23
2018-11-29T11:23:37.864Z,964.30
2018-11-29T11:24:37.820Z,964.27
2018-11-29T11:25:37.823Z,964.25
2018-11-29T11:26:37.818Z,964.23
2018-11-29T11:27:37.816Z,964.13
2018-11-29T11:28:37.830Z,964.27
2018-11-29T11:29:37.808Z,964.11
2018-11-29T11:30:37.824Z,964.25
2018-11-29T11:31:37.803Z,964.17
2018-11-29T11:32:37.802Z,964.15
2018-11-29T11:33:37.807Z,964.20
2018-11-29T11:34:37.803Z,964.13
2018-11-29T11:35:37.822Z,964.18
2018-11-29T11:36:37.789Z,964.15
2018-11-29T11:37:37.782Z,964.17
2018-11-29T11:38:37.781Z,964.12
2018-11-29T11:39:37.792Z,964.15
2018-11-29T11:40:37.850Z,964.20
2018-11-29T11:41:38.052Z,964.16
2018-11-29T11:42:37.781Z,964.25
2018-11-29T11:43:37.763Z,964.20
2018-11-29T11:44:37.760Z,964.12
2018-11-29T11:45:37.759Z,964.13
2018-11-29T11:46:37.755Z,964.11
2018-11-29T11:47:37.745Z,964.17
2018-11-29T11:48:37.746Z,964.09
2018-11-29T11:49:37.743Z,964.05
2018-11-29T11:50:37.799Z,964.07
2018-11-29T11:51:37.741Z,964.07
2018-11-29T11:52:37.731Z,964.08
2018-11-29T11:53:37.754Z,964.06
2018-11-29T11:54:37.726Z,964.06
2018-11-29T11:55:37.721Z,963.98
2018-11-29T11:56:37.772Z,964.07
2018-11-29T11:57:37.722Z,964.09
2018-11-29T11:58:37.734Z,963.99
2018-11-29T11:59:37.705Z,963.99
2018-11-29T12:00:37.701Z,963.97
2018-11-29T12:01:37.699Z,963.94
2018-11-29T12:02:37.695Z,963.93
2018-11-29T12:03:37.693Z,963.82
2018-11-29T12:04:37.690Z,963.94
2018-11-29T12:05:37.686Z,963.83
2018-11-29T12:06:37.708Z,963.89
2018-11-29T12:07:37.679Z,963.82
2018-11-29T12:08:37.700Z,963.88
2018-11-29T12:09:37.675Z,963.87
2018-11-29T12:10:37.669Z,963.92
2018-11-29T12:11:37.664Z,963.91
2018-11-29T12:12:37.668Z,963.89
2018-11-29T12:13:37.661Z,963.84
2018-11-29T12:14:37.655Z,963.83
2018-11-29T12:15:37.685Z,963.74
2018-11-29T12:16:37.650Z,963.76
2018-11-29T12:17:37.645Z,963.65
2018-11-29T12:18:37.645Z,963.73
2018-11-29T12:19:37.640Z,963.68
2018-11-29T12:20:37.663Z,963.71
2018-11-29T12:21:37.661Z,963.67
2018-11-29T12:22:37.630Z,963.76
2018-11-29T12:23:37.694Z,963.73
2018-11-29T12:24:37.621Z,963.58
2018-11-29T12:25:37.617Z,963.59
2018-11-29T12:26:37.625Z,963.64
2018-11-29T12:27:37.610Z,963.59
2018-11-29T12:28:37.628Z,963.54
2018-11-29T12:29:37.623Z,963.50
2018-11-29T12:30:37.605Z,963.41
2018-11-29T12:31:37.620Z,963.43
2018-11-29T12:32:37.627Z,963.31
2018-11-29T12:33:37.595Z,963.41
2018-11-29T12:34:37.606Z,963.39